sensor_id;sensor_type;location;lat;lon;timestamp;P1;durP1;ratioP1;P2;durP2;ratioP2
52796;SDS011;38666;43.348;12.584;2023-05-10T07:11:07;9.33;;;3.53;;
52796;SDS011;38666;43.348;12.584;2023-05-10T07:13:33;8.65;;;3.22;;
52796;SDS011;38666;43.348;12.584;2023-05-10T07:15:59;6.35;;;3.17;;
52796;SDS011;38666;43.348;12.584;2023-05-10T07:18:31;11.55;;;3.63;;
52796;SDS011;38666;43.348;12.584;2023-05-10T07:20:57;6.03;;;3.00;;
52796;SDS011;38666;43.348;12.584;2023-05-10T07:23:22;8.27;;;3.67;;
52796;SDS011;38666;43.348;12.584;2023-05-10T07:25:48;8.80;;;3.10;;
52796;SDS011;38666;43.348;12.584;2023-05-10T07:28:16;10.68;;;3.22;;
52796;SDS011;38666;43.348;12.584;2023-05-10T07:30:42;6.15;;;3.20;;
52796;SDS011;38666;43.348;12.584;2023-05-10T07:33:08;8.87;;;3.00;;
52796;SDS011;38666;43.348;12.584;2023-05-10T07:35:34;8.48;;;2.83;;
52796;SDS011;38666;43.348;12.584;2023-05-10T07:38:00;12.67;;;2.63;;
52796;SDS011;38666;43.348;12.584;2023-05-10T07:40:25;6.13;;;2.78;;
52796;SDS011;38666;43.348;12.584;2023-05-10T07:42:51;5.43;;;2.97;;
52796;SDS011;38666;43.348;12.584;2023-05-10T07:45:17;11.75;;;3.13;;
52796;SDS011;38666;43.348;12.584;2023-05-10T07:47:42;9.53;;;3.60;;
52796;SDS011;38666;43.348;12.584;2023-05-10T07:50:08;6.78;;;3.25;;
52796;SDS011;38666;43.348;12.584;2023-05-10T07:52:33;8.80;;;2.93;;
52796;SDS011;38666;43.348;12.584;2023-05-10T07:54:59;9.63;;;3.10;;
52796;SDS011;38666;43.348;12.584;2023-05-10T07:57:24;8.20;;;3.30;;
52796;SDS011;38666;43.348;12.584;2023-05-10T07:59:50;5.97;;;2.67;;
52796;SDS011;38666;43.348;12.584;2023-05-10T08:02:15;8.35;;;3.70;;
52796;SDS011;38666;43.348;12.584;2023-05-10T08:04:41;5.40;;;3.00;;
52796;SDS011;38666;43.348;12.584;2023-05-10T08:07:06;7.50;;;2.97;;
52796;SDS011;38666;43.348;12.584;2023-05-10T08:09:32;11.65;;;3.20;;
52796;SDS011;38666;43.348;12.584;2023-05-10T08:11:57;8.40;;;2.63;;
52796;SDS011;38666;43.348;12.584;2023-05-10T08:14:24;7.60;;;3.17;;
52796;SDS011;38666;43.348;12.584;2023-05-10T08:16:50;5.13;;;2.58;;
52796;SDS011;38666;43.348;12.584;2023-05-10T08:19:16;4.40;;;2.53;;
52796;SDS011;38666;43.348;12.584;2023-05-10T08:21:44;5.03;;;2.80;;
52796;SDS011;38666;43.348;12.584;2023-05-10T08:24:10;8.65;;;2.72;;
52796;SDS011;38666;43.348;12.584;2023-05-10T08:26:36;5.30;;;2.77;;
52796;SDS011;38666;43.348;12.584;2023-05-10T08:29:01;7.45;;;2.65;;
52796;SDS011;38666;43.348;12.584;2023-05-10T08:31:27;7.93;;;2.60;;
52796;SDS011;38666;43.348;12.584;2023-05-10T08:33:52;6.20;;;2.57;;
52796;SDS011;38666;43.348;12.584;2023-05-10T08:36:18;12.50;;;2.78;;
52796;SDS011;38666;43.348;12.584;2023-05-10T08:38:47;9.02;;;2.30;;
52796;SDS011;38666;43.348;12.584;2023-05-10T08:41:14;5.38;;;2.58;;
52796;SDS011;38666;43.348;12.584;2023-05-10T08:43:40;9.32;;;2.70;;
52796;SDS011;38666;43.348;12.584;2023-05-10T08:46:11;7.18;;;2.50;;
52796;SDS011;38666;43.348;12.584;2023-05-10T08:48:42;6.38;;;3.05;;
52796;SDS011;38666;43.348;12.584;2023-05-10T08:51:09;4.50;;;2.70;;
52796;SDS011;38666;43.348;12.584;2023-05-10T08:53:43;6.23;;;3.07;;
52796;SDS011;38666;43.348;12.584;2023-05-10T08:56:09;7.57;;;3.33;;
52796;SDS011;38666;43.348;12.584;2023-05-10T08:58:34;12.30;;;3.50;;
52796;SDS011;38666;43.348;12.584;2023-05-10T09:01:00;6.22;;;3.33;;
52796;SDS011;38666;43.348;12.584;2023-05-10T09:03:26;6.07;;;3.13;;
52796;SDS011;38666;43.348;12.584;2023-05-10T09:05:51;6.18;;;2.97;;
52796;SDS011;38666;43.348;12.584;2023-05-10T09:08:17;5.87;;;2.73;;
52796;SDS011;38666;43.348;12.584;2023-05-10T09:10:45;6.00;;;2.13;;
52796;SDS011;38666;43.348;12.584;2023-05-10T09:13:13;8.52;;;2.55;;
52796;SDS011;38666;43.348;12.584;2023-05-10T09:15:40;6.40;;;2.60;;
52796;SDS011;38666;43.348;12.584;2023-05-10T09:18:06;7.18;;;2.45;;
52796;SDS011;38666;43.348;12.584;2023-05-10T09:20:32;6.37;;;3.00;;
52796;SDS011;38666;43.348;12.584;2023-05-10T09:22:57;14.07;;;3.80;;
52796;SDS011;38666;43.348;12.584;2023-05-10T09:25:22;6.05;;;2.92;;
52796;SDS011;38666;43.348;12.584;2023-05-10T09:27:48;6.73;;;3.37;;
52796;SDS011;38666;43.348;12.584;2023-05-10T09:30:17;5.93;;;3.03;;
52796;SDS011;38666;43.348;12.584;2023-05-10T09:32:48;9.23;;;3.73;;
52796;SDS011;38666;43.348;12.584;2023-05-10T09:35:14;10.68;;;3.60;;
52796;SDS011;38666;43.348;12.584;2023-05-10T09:37:42;8.10;;;3.88;;
52796;SDS011;38666;43.348;12.584;2023-05-10T09:40:12;9.20;;;4.30;;
52796;SDS011;38666;43.348;12.584;2023-05-10T09:42:40;11.43;;;5.30;;
52796;SDS011;38666;43.348;12.584;2023-05-10T09:45:19;31.85;;;5.45;;
52796;SDS011;38666;43.348;12.584;2023-05-10T09:47:46;12.82;;;4.20;;
52796;SDS011;38666;43.348;12.584;2023-05-10T09:50:11;8.40;;;4.40;;
52796;SDS011;38666;43.348;12.584;2023-05-10T09:55:23;8.43;;;4.22;;
52796;SDS011;38666;43.348;12.584;2023-05-10T09:57:59;12.05;;;4.07;;
52796;SDS011;38666;43.348;12.584;2023-05-10T10:00:26;7.78;;;3.65;;
52796;SDS011;38666;43.348;12.584;2023-05-10T10:02:56;7.82;;;3.40;;
52796;SDS011;38666;43.348;12.584;2023-05-10T10:05:29;13.20;;;3.47;;
52796;SDS011;38666;43.348;12.584;2023-05-10T10:07:56;8.25;;;3.25;;
52796;SDS011;38666;43.348;12.584;2023-05-10T10:10:26;8.57;;;3.28;;
52796;SDS011;38666;43.348;12.584;2023-05-10T10:12:53;7.57;;;3.20;;
52796;SDS011;38666;43.348;12.584;2023-05-10T10:15:23;6.18;;;2.90;;
52796;SDS011;38666;43.348;12.584;2023-05-10T10:17:49;7.95;;;3.45;;
52796;SDS011;38666;43.348;12.584;2023-05-10T10:20:16;6.45;;;3.20;;
52796;SDS011;38666;43.348;12.584;2023-05-10T10:22:43;5.60;;;2.83;;
52796;SDS011;38666;43.348;12.584;2023-05-10T10:25:10;7.37;;;3.00;;
52796;SDS011;38666;43.348;12.584;2023-05-10T10:27:43;4.93;;;2.72;;
52796;SDS011;38666;43.348;12.584;2023-05-10T10:35:23;5.00;;;2.40;;
52796;SDS011;38666;43.348;12.584;2023-05-10T10:37:50;5.10;;;2.60;;
52796;SDS011;38666;43.348;12.584;2023-05-10T10:40:22;5.43;;;2.20;;
52796;SDS011;38666;43.348;12.584;2023-05-10T10:42:48;5.40;;;2.50;;
52796;SDS011;38666;43.348;12.584;2023-05-10T10:45:16;7.90;;;2.80;;
52796;SDS011;38666;43.348;12.584;2023-05-10T10:47:42;5.23;;;2.50;;
52796;SDS011;38666;43.348;12.584;2023-05-10T10:50:10;12.32;;;2.08;;
52796;SDS011;38666;43.348;12.584;2023-05-10T10:52:38;4.78;;;2.08;;
52796;SDS011;38666;43.348;12.584;2023-05-10T11:03:13;5.00;;;2.13;;
52796;SDS011;38666;43.348;12.584;2023-05-10T11:05:50;5.47;;;2.55;;
52796;SDS011;38666;43.348;12.584;2023-05-10T11:08:29;5.55;;;2.95;;
52796;SDS011;38666;43.348;12.584;2023-05-10T11:13:34;4.93;;;2.50;;
52796;SDS011;38666;43.348;12.584;2023-05-10T11:16:17;6.70;;;2.10;;
52796;SDS011;38666;43.348;12.584;2023-05-10T11:18:53;3.78;;;2.00;;
52796;SDS011;38666;43.348;12.584;2023-05-10T11:21:19;3.83;;;1.77;;
52796;SDS011;38666;43.348;12.584;2023-05-10T11:23:54;9.20;;;1.97;;
52796;SDS011;38666;43.348;12.584;2023-05-10T11:26:22;5.15;;;2.08;;
52796;SDS011;38666;43.348;12.584;2023-05-10T11:28:51;3.90;;;1.90;;
52796;SDS011;38666;43.348;12.584;2023-05-10T11:31:20;5.30;;;2.30;;
52796;SDS011;38666;43.348;12.584;2023-05-10T11:33:49;4.38;;;2.20;;
52796;SDS011;38666;43.348;12.584;2023-05-10T11:36:17;4.75;;;2.10;;
52796;SDS011;38666;43.348;12.584;2023-05-10T11:38:44;7.72;;;2.40;;
52796;SDS011;38666;43.348;12.584;2023-05-10T11:41:10;4.70;;;2.38;;
52796;SDS011;38666;43.348;12.584;2023-05-10T11:43:40;5.00;;;2.40;;
52796;SDS011;38666;43.348;12.584;2023-05-10T11:46:06;5.45;;;2.33;;
52796;SDS011;38666;43.348;12.584;2023-05-10T11:48:33;3.88;;;1.77;;
52796;SDS011;38666;43.348;12.584;2023-05-10T11:51:00;5.47;;;2.23;;
52796;SDS011;38666;43.348;12.584;2023-05-10T11:53:26;6.47;;;2.63;;
52796;SDS011;38666;43.348;12.584;2023-05-10T11:55:52;7.28;;;2.40;;
52796;SDS011;38666;43.348;12.584;2023-05-10T11:58:18;3.33;;;2.00;;
52796;SDS011;38666;43.348;12.584;2023-05-10T12:00:44;4.22;;;2.20;;
52796;SDS011;38666;43.348;12.584;2023-05-10T12:03:10;4.43;;;2.20;;
52796;SDS011;38666;43.348;12.584;2023-05-10T12:05:36;4.50;;;1.85;;
52796;SDS011;38666;43.348;12.584;2023-05-10T12:08:12;8.77;;;2.28;;
52796;SDS011;38666;43.348;12.584;2023-05-10T12:10:45;6.35;;;2.65;;
52796;SDS011;38666;43.348;12.584;2023-05-10T12:13:11;7.63;;;2.33;;
52796;SDS011;38666;43.348;12.584;2023-05-10T12:15:38;5.70;;;2.58;;
52796;SDS011;38666;43.348;12.584;2023-05-10T12:18:04;5.03;;;2.30;;
52796;SDS011;38666;43.348;12.584;2023-05-10T12:20:30;3.75;;;1.98;;
52796;SDS011;38666;43.348;12.584;2023-05-10T12:22:56;5.53;;;2.42;;
52796;SDS011;38666;43.348;12.584;2023-05-10T12:25:23;6.18;;;2.45;;
52796;SDS011;38666;43.348;12.584;2023-05-10T12:27:55;5.93;;;2.25;;
52796;SDS011;38666;43.348;12.584;2023-05-10T12:30:25;5.97;;;2.30;;
52796;SDS011;38666;43.348;12.584;2023-05-10T12:32:52;4.78;;;2.42;;
52796;SDS011;38666;43.348;12.584;2023-05-10T12:35:18;5.75;;;2.67;;
52796;SDS011;38666;43.348;12.584;2023-05-10T12:37:49;8.32;;;2.70;;
52796;SDS011;38666;43.348;12.584;2023-05-10T12:40:15;4.43;;;2.10;;
52796;SDS011;38666;43.348;12.584;2023-05-10T12:42:41;5.32;;;2.28;;
52796;SDS011;38666;43.348;12.584;2023-05-10T12:45:07;5.83;;;2.53;;
52796;SDS011;38666;43.348;12.584;2023-05-10T12:47:33;5.75;;;2.33;;
52796;SDS011;38666;43.348;12.584;2023-05-10T12:49:59;3.10;;;2.00;;
52796;SDS011;38666;43.348;12.584;2023-05-10T12:52:26;6.72;;;1.90;;
52796;SDS011;38666;43.348;12.584;2023-05-10T12:54:52;12.43;;;2.75;;
52796;SDS011;38666;43.348;12.584;2023-05-10T12:57:18;5.22;;;2.47;;
52796;SDS011;38666;43.348;12.584;2023-05-10T12:59:47;4.05;;;2.10;;
52796;SDS011;38666;43.348;12.584;2023-05-10T13:02:12;4.00;;;2.20;;
52796;SDS011;38666;43.348;12.584;2023-05-10T13:04:39;14.10;;;2.70;;
52796;SDS011;38666;43.348;12.584;2023-05-10T13:07:06;7.97;;;2.25;;
52796;SDS011;38666;43.348;12.584;2023-05-10T13:09:31;6.45;;;2.40;;
52796;SDS011;38666;43.348;12.584;2023-05-10T13:11:57;6.03;;;2.50;;
52796;SDS011;38666;43.348;12.584;2023-05-10T13:14:22;6.67;;;2.20;;
52796;SDS011;38666;43.348;12.584;2023-05-10T13:16:48;10.60;;;5.73;;
52796;SDS011;38666;43.348;12.584;2023-05-10T13:19:13;8.18;;;3.70;;
52796;SDS011;38666;43.348;12.584;2023-05-10T13:21:39;8.70;;;1.80;;
52796;SDS011;38666;43.348;12.584;2023-05-10T13:24:09;3.22;;;1.80;;
52796;SDS011;38666;43.348;12.584;2023-05-10T13:26:35;2.92;;;1.67;;
52796;SDS011;38666;43.348;12.584;2023-05-10T13:29:01;4.25;;;1.50;;
52796;SDS011;38666;43.348;12.584;2023-05-10T13:31:27;4.93;;;1.90;;
52796;SDS011;38666;43.348;12.584;2023-05-10T13:33:52;4.47;;;1.67;;
52796;SDS011;38666;43.348;12.584;2023-05-10T13:36:18;6.23;;;2.03;;
52796;SDS011;38666;43.348;12.584;2023-05-10T13:38:43;3.38;;;1.52;;
52796;SDS011;38666;43.348;12.584;2023-05-10T13:41:09;5.70;;;2.10;;
52796;SDS011;38666;43.348;12.584;2023-05-10T13:43:35;3.58;;;1.70;;
52796;SDS011;38666;43.348;12.584;2023-05-10T13:46:15;4.72;;;1.85;;
52796;SDS011;38666;43.348;12.584;2023-05-10T13:48:44;6.50;;;1.73;;
52796;SDS011;38666;43.348;12.584;2023-05-10T13:51:09;5.07;;;1.80;;
52796;SDS011;38666;43.348;12.584;2023-05-10T13:53:35;3.83;;;1.70;;
52796;SDS011;38666;43.348;12.584;2023-05-10T13:56:01;3.00;;;1.63;;
52796;SDS011;38666;43.348;12.584;2023-05-10T13:58:27;3.22;;;1.83;;
52796;SDS011;38666;43.348;12.584;2023-05-10T14:00:53;6.23;;;1.30;;
52796;SDS011;38666;43.348;12.584;2023-05-10T14:03:18;2.07;;;1.20;;
52796;SDS011;38666;43.348;12.584;2023-05-10T14:05:44;3.00;;;1.30;;
52796;SDS011;38666;43.348;12.584;2023-05-10T14:08:10;4.68;;;1.40;;
52796;SDS011;38666;43.348;12.584;2023-05-10T14:10:35;6.25;;;1.10;;
52796;SDS011;38666;43.348;12.584;2023-05-10T14:13:01;5.93;;;1.40;;
52796;SDS011;38666;43.348;12.584;2023-05-10T14:15:28;3.28;;;1.08;;
52796;SDS011;38666;43.348;12.584;2023-05-10T14:17:53;4.40;;;1.40;;
52796;SDS011;38666;43.348;12.584;2023-05-10T14:20:19;3.60;;;1.40;;
52796;SDS011;38666;43.348;12.584;2023-05-10T14:22:44;3.45;;;1.67;;
52796;SDS011;38666;43.348;12.584;2023-05-10T14:25:10;3.73;;;1.40;;
52796;SDS011;38666;43.348;12.584;2023-05-10T14:27:35;3.23;;;1.60;;
52796;SDS011;38666;43.348;12.584;2023-05-10T14:30:01;4.55;;;1.73;;
52796;SDS011;38666;43.348;12.584;2023-05-10T14:32:27;7.68;;;1.60;;
52796;SDS011;38666;43.348;12.584;2023-05-10T14:34:53;5.28;;;1.63;;
52796;SDS011;38666;43.348;12.584;2023-05-10T14:37:18;8.30;;;1.60;;
52796;SDS011;38666;43.348;12.584;2023-05-10T14:39:44;3.37;;;1.50;;
52796;SDS011;38666;43.348;12.584;2023-05-10T14:42:09;4.18;;;1.42;;
52796;SDS011;38666;43.348;12.584;2023-05-10T14:44:34;3.93;;;1.50;;
52796;SDS011;38666;43.348;12.584;2023-05-10T14:47:04;5.82;;;2.03;;
52796;SDS011;38666;43.348;12.584;2023-05-10T14:49:30;6.13;;;1.93;;
52796;SDS011;38666;43.348;12.584;2023-05-10T14:51:57;7.45;;;2.28;;
52796;SDS011;38666;43.348;12.584;2023-05-10T14:54:24;5.22;;;2.30;;
52796;SDS011;38666;43.348;12.584;2023-05-10T14:56:51;5.00;;;2.08;;
52796;SDS011;38666;43.348;12.584;2023-05-10T14:59:18;4.57;;;2.00;;
52796;SDS011;38666;43.348;12.584;2023-05-10T15:01:46;7.13;;;1.90;;
52796;SDS011;38666;43.348;12.584;2023-05-10T15:04:12;4.15;;;1.88;;
52796;SDS011;38666;43.348;12.584;2023-05-10T15:17:12;3.73;;;1.43;;
52796;SDS011;38666;43.348;12.584;2023-05-10T15:19:37;4.63;;;1.25;;
52796;SDS011;38666;43.348;12.584;2023-05-10T15:22:04;3.43;;;1.43;;
52796;SDS011;38666;43.348;12.584;2023-05-10T15:24:30;4.45;;;1.10;;
52796;SDS011;38666;43.348;12.584;2023-05-10T15:26:55;19.80;;;6.00;;
52796;SDS011;38666;43.348;12.584;2023-05-10T15:29:21;3.73;;;1.60;;
52796;SDS011;38666;43.348;12.584;2023-05-10T15:31:50;2.22;;;1.27;;
52796;SDS011;38666;43.348;12.584;2023-05-10T15:34:16;2.15;;;1.25;;
52796;SDS011;38666;43.348;12.584;2023-05-10T15:36:42;11.63;;;3.23;;
52796;SDS011;38666;43.348;12.584;2023-05-10T15:39:09;6.05;;;2.70;;
52796;SDS011;38666;43.348;12.584;2023-05-10T15:41:35;4.00;;;1.33;;
52796;SDS011;38666;43.348;12.584;2023-05-10T15:44:00;1.98;;;1.17;;
52796;SDS011;38666;43.348;12.584;2023-05-10T15:46:29;2.78;;;1.05;;
52796;SDS011;38666;43.348;12.584;2023-05-10T15:48:56;2.47;;;1.07;;
52796;SDS011;38666;43.348;12.584;2023-05-10T15:51:23;4.03;;;1.20;;
52796;SDS011;38666;43.348;12.584;2023-05-10T15:53:48;2.03;;;1.10;;
52796;SDS011;38666;43.348;12.584;2023-05-10T15:56:13;1.65;;;0.88;;
52796;SDS011;38666;43.348;12.584;2023-05-10T15:58:39;1.83;;;1.10;;
52796;SDS011;38666;43.348;12.584;2023-05-10T16:01:05;2.78;;;1.00;;
52796;SDS011;38666;43.348;12.584;2023-05-10T16:03:32;3.42;;;1.50;;
52796;SDS011;38666;43.348;12.584;2023-05-10T16:05:58;2.65;;;1.23;;
52796;SDS011;38666;43.348;12.584;2023-05-10T16:08:24;2.47;;;1.33;;
52796;SDS011;38666;43.348;12.584;2023-05-10T16:10:50;7.68;;;1.40;;
52796;SDS011;38666;43.348;12.584;2023-05-10T16:13:16;3.10;;;1.30;;
52796;SDS011;38666;43.348;12.584;2023-05-10T16:15:41;2.23;;;0.90;;
52796;SDS011;38666;43.348;12.584;2023-05-10T16:18:07;10.32;;;2.33;;
52796;SDS011;38666;43.348;12.584;2023-05-10T16:20:33;2.60;;;1.27;;
52796;SDS011;38666;43.348;12.584;2023-05-10T16:23:02;3.25;;;1.70;;
52796;SDS011;38666;43.348;12.584;2023-05-10T16:25:29;3.08;;;1.35;;
52796;SDS011;38666;43.348;12.584;2023-05-10T16:27:55;2.70;;;1.30;;
52796;SDS011;38666;43.348;12.584;2023-05-10T16:30:21;5.60;;;1.42;;
52796;SDS011;38666;43.348;12.584;2023-05-10T16:32:48;3.13;;;1.35;;
52796;SDS011;38666;43.348;12.584;2023-05-10T16:35:14;10.93;;;1.43;;
52796;SDS011;38666;43.348;12.584;2023-05-10T16:37:39;2.22;;;1.13;;
52796;SDS011;38666;43.348;12.584;2023-05-10T16:40:05;4.53;;;1.40;;
52796;SDS011;38666;43.348;12.584;2023-05-10T16:42:31;3.45;;;1.38;;
52796;SDS011;38666;43.348;12.584;2023-05-10T16:44:57;4.63;;;1.60;;
52796;SDS011;38666;43.348;12.584;2023-05-10T16:47:22;7.13;;;1.73;;
52796;SDS011;38666;43.348;12.584;2023-05-10T16:49:50;7.90;;;1.50;;
52796;SDS011;38666;43.348;12.584;2023-05-10T16:52:16;5.53;;;1.87;;
52796;SDS011;38666;43.348;12.584;2023-05-10T16:54:41;5.13;;;1.60;;
52796;SDS011;38666;43.348;12.584;2023-05-10T16:57:06;3.15;;;1.70;;
52796;SDS011;38666;43.348;12.584;2023-05-10T16:59:32;4.37;;;1.50;;
52796;SDS011;38666;43.348;12.584;2023-05-10T17:01:58;5.85;;;1.77;;
52796;SDS011;38666;43.348;12.584;2023-05-10T17:04:23;3.97;;;1.90;;
52796;SDS011;38666;43.348;12.584;2023-05-10T17:06:48;5.07;;;2.17;;
52796;SDS011;38666;43.348;12.584;2023-05-10T17:09:14;3.90;;;1.52;;
52796;SDS011;38666;43.348;12.584;2023-05-10T17:11:39;4.80;;;1.70;;
52796;SDS011;38666;43.348;12.584;2023-05-10T17:14:06;4.32;;;1.75;;
52796;SDS011;38666;43.348;12.584;2023-05-10T17:16:31;3.20;;;1.40;;
52796;SDS011;38666;43.348;12.584;2023-05-10T17:18:57;3.20;;;1.80;;
52796;SDS011;38666;43.348;12.584;2023-05-10T17:21:28;8.83;;;2.33;;
52796;SDS011;38666;43.348;12.584;2023-05-10T17:23:54;3.58;;;1.48;;
52796;SDS011;38666;43.348;12.584;2023-05-10T17:26:19;8.13;;;1.60;;
52796;SDS011;38666;43.348;12.584;2023-05-10T17:28:46;4.50;;;1.43;;
52796;SDS011;38666;43.348;12.584;2023-05-10T17:31:11;3.97;;;1.55;;
52796;SDS011;38666;43.348;12.584;2023-05-10T17:33:37;4.50;;;1.70;;
52796;SDS011;38666;43.348;12.584;2023-05-10T17:36:02;7.07;;;2.30;;
52796;SDS011;38666;43.348;12.584;2023-05-10T17:38:28;4.68;;;1.92;;
52796;SDS011;38666;43.348;12.584;2023-05-10T17:40:53;11.07;;;2.00;;
52796;SDS011;38666;43.348;12.584;2023-05-10T17:43:19;8.80;;;1.57;;
52796;SDS011;38666;43.348;12.584;2023-05-10T17:45:46;5.63;;;1.60;;
52796;SDS011;38666;43.348;12.584;2023-05-10T17:48:13;3.67;;;1.42;;
52796;SDS011;38666;43.348;12.584;2023-05-10T17:50:40;6.78;;;2.83;;
52796;SDS011;38666;43.348;12.584;2023-05-10T17:53:07;7.63;;;2.03;;
52796;SDS011;38666;43.348;12.584;2023-05-10T17:55:32;8.60;;;3.17;;
52796;SDS011;38666;43.348;12.584;2023-05-10T17:57:58;8.25;;;2.67;;
52796;SDS011;38666;43.348;12.584;2023-05-10T18:00:24;9.83;;;3.10;;
52796;SDS011;38666;43.348;12.584;2023-05-10T18:02:49;7.90;;;2.60;;
52796;SDS011;38666;43.348;12.584;2023-05-10T18:05:15;10.03;;;2.43;;
52796;SDS011;38666;43.348;12.584;2023-05-10T18:07:40;7.90;;;3.83;;
52796;SDS011;38666;43.348;12.584;2023-05-10T18:10:06;3.07;;;1.20;;
52796;SDS011;38666;43.348;12.584;2023-05-10T18:12:32;9.18;;;4.65;;
52796;SDS011;38666;43.348;12.584;2023-05-10T18:14:57;5.30;;;2.20;;
52796;SDS011;38666;43.348;12.584;2023-05-10T18:17:23;3.88;;;1.63;;
52796;SDS011;38666;43.348;12.584;2023-05-10T18:19:48;4.50;;;1.40;;
52796;SDS011;38666;43.348;12.584;2023-05-10T18:22:14;8.47;;;1.57;;
52796;SDS011;38666;43.348;12.584;2023-05-10T18:24:39;6.38;;;1.83;;
52796;SDS011;38666;43.348;12.584;2023-05-10T18:27:05;3.87;;;1.47;;
52796;SDS011;38666;43.348;12.584;2023-05-10T18:29:32;5.30;;;1.48;;
52796;SDS011;38666;43.348;12.584;2023-05-10T18:31:57;1.27;;;0.50;;
52796;SDS011;38666;43.348;12.584;2023-05-10T18:34:23;10.95;;;2.10;;
52796;SDS011;38666;43.348;12.584;2023-05-10T18:36:48;7.37;;;2.70;;
52796;SDS011;38666;43.348;12.584;2023-05-10T18:39:13;2.60;;;0.80;;
52796;SDS011;38666;43.348;12.584;2023-05-10T18:41:41;2.80;;;0.88;;
52796;SDS011;38666;43.348;12.584;2023-05-10T18:44:08;3.17;;;0.93;;
52796;SDS011;38666;43.348;12.584;2023-05-10T18:46:33;0.95;;;0.50;;
52796;SDS011;38666;43.348;12.584;2023-05-10T18:48:59;3.60;;;1.03;;
